createdAt,value
2022-11-30T00:01:16.250Z,99.90
2022-11-30T00:03:23.334Z,99.90
2022-11-30T00:05:30.975Z,99.90
2022-11-30T00:07:38.391Z,99.90
2022-11-30T00:09:46.667Z,99.90
2022-11-30T00:11:53.490Z,99.90
2022-11-30T00:14:00.929Z,99.90
2022-11-30T00:16:08.110Z,99.90
2022-11-30T00:18:18.875Z,99.90
2022-11-30T00:20:25.697Z,99.90
2022-11-30T00:22:32.829Z,99.90
2022-11-30T00:24:39.752Z,99.90
2022-11-30T00:26:46.883Z,99.90
2022-11-30T00:28:54.171Z,99.90
2022-11-30T00:31:02.137Z,99.90
2022-11-30T00:33:09.043Z,99.90
2022-11-30T00:35:18.836Z,99.90
2022-11-30T00:37:26.427Z,99.90
2022-11-30T00:39:35.565Z,99.90
2022-11-30T00:41:42.992Z,99.90
2022-11-30T00:43:49.919Z,99.90
2022-11-30T00:45:57.250Z,99.90
2022-11-30T00:48:04.229Z,99.90
2022-11-30T00:50:12.383Z,99.90
2022-11-30T00:52:20.947Z,99.70
2022-11-30T00:54:28.135Z,99.40
2022-11-30T00:56:34.852Z,99.30
2022-11-30T00:58:42.338Z,99.10
2022-11-30T01:00:49.369Z,98.90
2022-11-30T01:02:58.188Z,98.80
2022-11-30T01:05:05.062Z,98.60
2022-11-30T01:07:12.350Z,98.40
2022-11-30T01:09:20.961Z,98.20
2022-11-30T01:11:29.985Z,97.60
2022-11-30T01:13:37.585Z,97.20
2022-11-30T01:15:46.447Z,97.00
2022-11-30T01:17:53.323Z,96.90
2022-11-30T01:20:00.153Z,96.70
2022-11-30T01:22:07.481Z,96.10
2022-11-30T01:24:14.407Z,95.80
2022-11-30T01:26:23.639Z,94.80
2022-11-30T01:28:30.613Z,94.80
2022-11-30T01:30:37.835Z,94.70
2022-11-30T01:32:44.719Z,94.50
2022-11-30T01:34:51.799Z,94.10
2022-11-30T01:36:58.572Z,93.40
2022-11-30T01:39:05.702Z,92.80
2022-11-30T01:41:14.062Z,92.70
2022-11-30T01:43:23.496Z,92.60
2022-11-30T01:45:30.574Z,92.40
2022-11-30T01:47:40.317Z,91.70
2022-11-30T01:49:50.263Z,91.50
2022-11-30T01:52:01.849Z,91.40
2022-11-30T01:54:11.589Z,91.30
2022-11-30T01:56:19.245Z,91.10
2022-11-30T01:58:33.430Z,89.70
2022-11-30T02:00:40.457Z,89.80
2022-11-30T02:02:57.108Z,89.70
2022-11-30T02:05:04.649Z,89.20
2022-11-30T02:07:13.711Z,88.80
2022-11-30T02:09:22.442Z,88.80
2022-11-30T02:11:31.214Z,88.50
2022-11-30T02:14:00.066Z,87.60
2022-11-30T02:16:15.410Z,87.10
2022-11-30T02:18:27.625Z,86.70
2022-11-30T02:21:08.138Z,86.70
2022-11-30T02:23:47.064Z,86.40
2022-11-30T02:26:04.535Z,86.30
2022-11-30T02:28:38.035Z,85.60
2022-11-30T02:30:53.547Z,85.00
2022-11-30T02:33:03.508Z,84.90
2022-11-30T02:35:13.712Z,80.60
2022-11-30T02:37:21.662Z,81.50
2022-11-30T02:39:28.842Z,81.40
2022-11-30T02:41:40.478Z,81.20
2022-11-30T02:43:48.018Z,80.30
2022-11-30T02:46:03.534Z,79.30
2022-11-30T02:48:13.390Z,79.60
2022-11-30T02:50:25.837Z,79.10
2022-11-30T02:52:34.921Z,79.10
2022-11-30T02:54:42.574Z,78.60
2022-11-30T02:56:50.002Z,78.50
2022-11-30T02:58:56.876Z,78.10
2022-11-30T03:01:05.775Z,75.70
2022-11-30T03:03:12.620Z,75.60
2022-11-30T03:05:20.071Z,75.50
2022-11-30T03:07:27.071Z,75.20
2022-11-30T03:09:34.167Z,75.80
2022-11-30T03:11:40.886Z,76.00
2022-11-30T03:13:47.967Z,74.20
2022-11-30T03:15:55.012Z,73.70
2022-11-30T03:18:05.401Z,72.90
2022-11-30T03:20:13.404Z,70.30
2022-11-30T03:22:20.946Z,71.50
2022-11-30T03:24:27.817Z,72.20
2022-11-30T03:26:34.999Z,72.30
2022-11-30T03:28:41.976Z,72.80
2022-11-30T03:30:52.950Z,73.30
2022-11-30T03:33:00.386Z,72.70
2022-11-30T03:35:09.818Z,72.70
2022-11-30T03:37:16.642Z,72.90
2022-11-30T03:39:24.592Z,72.90
2022-11-30T03:41:33.053Z,73.10
2022-11-30T03:43:40.387Z,73.40
2022-11-30T03:45:49.465Z,73.40
2022-11-30T03:47:56.647Z,72.60
2022-11-30T03:50:03.470Z,71.00
2022-11-30T03:52:12.340Z,67.00
2022-11-30T03:54:19.215Z,67.40
2022-11-30T03:56:27.573Z,68.20
2022-11-30T03:58:34.602Z,68.00
2022-11-30T04:00:42.089Z,67.70
2022-11-30T04:02:48.989Z,67.60
2022-11-30T04:04:56.250Z,66.80
2022-11-30T04:07:03.230Z,65.50
2022-11-30T04:09:13.274Z,66.30
2022-11-30T04:11:20.872Z,66.80
2022-11-30T04:13:29.173Z,67.10
2022-11-30T04:15:35.944Z,67.20
2022-11-30T04:17:43.335Z,66.90
2022-11-30T04:19:50.103Z,67.40
2022-11-30T04:21:57.237Z,67.40
2022-11-30T04:24:04.313Z,67.30
2022-11-30T04:26:17.230Z,67.30
2022-11-30T04:28:24.156Z,67.60
2022-11-30T04:30:31.234Z,68.20
2022-11-30T04:32:38.056Z,68.30
2022-11-30T04:34:45.453Z,67.90
2022-11-30T04:36:56.042Z,67.00
2022-11-30T04:39:07.235Z,66.50
2022-11-30T04:41:15.844Z,65.60
2022-11-30T04:43:23.540Z,65.10
2022-11-30T04:45:35.197Z,65.10
2022-11-30T04:47:43.074Z,65.30
2022-11-30T04:49:50.820Z,66.00
2022-11-30T04:51:57.641Z,66.50
2022-11-30T04:54:04.823Z,66.20
2022-11-30T04:56:12.618Z,66.50
2022-11-30T04:58:21.542Z,66.00
2022-11-30T05:00:28.569Z,64.20
2022-11-30T05:02:35.444Z,64.30
2022-11-30T05:04:42.651Z,64.40
2022-11-30T05:06:49.534Z,64.60
2022-11-30T05:08:56.732Z,64.60
2022-11-30T05:11:03.560Z,64.90
2022-11-30T05:13:10.686Z,64.10
2022-11-30T05:15:19.665Z,64.10
2022-11-30T05:17:27.251Z,64.50
2022-11-30T05:19:34.025Z,64.20
2022-11-30T05:21:45.446Z,64.50
2022-11-30T05:23:53.410Z,64.20
2022-11-30T05:26:01.406Z,62.60
2022-11-30T05:28:08.490Z,62.50
2022-11-30T05:30:18.228Z,62.90
2022-11-30T05:32:25.202Z,62.80
2022-11-30T05:34:41.280Z,62.70
2022-11-30T05:36:56.819Z,62.30
2022-11-30T05:39:03.796Z,62.20
2022-11-30T05:41:10.570Z,59.90
2022-11-30T05:43:18.006Z,59.60
2022-11-30T05:45:27.286Z,61.00
2022-11-30T05:47:34.059Z,62.00
2022-11-30T05:49:41.243Z,61.20
2022-11-30T05:51:48.424Z,61.20
2022-11-30T05:53:55.603Z,61.50
2022-11-30T05:56:06.627Z,62.20
2022-11-30T05:58:13.553Z,63.10
2022-11-30T06:00:22.424Z,63.00
2022-11-30T06:02:31.189Z,62.90
2022-11-30T06:04:38.711Z,61.90
2022-11-30T06:06:46.888Z,62.30
2022-11-30T06:08:54.219Z,62.70
2022-11-30T06:11:04.578Z,62.10
2022-11-30T06:13:12.424Z,61.40
2022-11-30T06:15:19.919Z,61.20
2022-11-30T06:17:26.788Z,60.70
2022-11-30T06:19:35.713Z,61.20
2022-11-30T06:21:43.249Z,61.50
2022-11-30T06:23:50.379Z,61.50
2022-11-30T06:25:57.203Z,61.60
2022-11-30T06:28:04.643Z,61.70
2022-11-30T06:30:12.645Z,62.20
2022-11-30T06:32:19.721Z,62.90
2022-11-30T06:34:26.749Z,63.00
2022-11-30T06:36:36.526Z,62.80
2022-11-30T06:38:43.569Z,62.40
2022-11-30T06:40:50.699Z,62.00
2022-11-30T06:42:57.778Z,62.20
2022-11-30T06:45:04.962Z,62.30
2022-11-30T06:47:11.833Z,62.10
2022-11-30T06:49:18.965Z,61.30
2022-11-30T06:51:25.685Z,61.20
2022-11-30T06:53:34.660Z,60.60
2022-11-30T06:55:41.379Z,59.90
2022-11-30T06:57:48.818Z,60.00
2022-11-30T06:59:55.594Z,60.50
2022-11-30T07:02:08.107Z,60.20
2022-11-30T07:04:16.643Z,60.80
2022-11-30T07:06:23.944Z,61.80
2022-11-30T07:08:30.664Z,62.50
2022-11-30T07:10:43.786Z,62.90
2022-11-30T07:12:53.424Z,63.50
2022-11-30T07:15:00.660Z,64.00
2022-11-30T07:17:07.584Z,64.00
2022-11-30T07:19:14.713Z,64.00
2022-11-30T07:21:21.536Z,64.10
2022-11-30T07:23:45.310Z,63.30
2022-11-30T07:26:13.331Z,62.50
2022-11-30T07:28:20.620Z,61.60
2022-11-30T07:30:27.882Z,61.60
2022-11-30T07:32:35.237Z,61.50
2022-11-30T07:34:42.363Z,61.30
2022-11-30T07:36:49.753Z,61.10
2022-11-30T07:38:56.680Z,60.90
2022-11-30T07:41:05.853Z,61.40
2022-11-30T07:43:12.931Z,61.40
2022-11-30T07:45:20.269Z,61.60
2022-11-30T07:47:27.245Z,62.30
2022-11-30T07:49:34.590Z,62.90
2022-11-30T07:51:41.509Z,63.40
2022-11-30T07:53:48.793Z,63.60
2022-11-30T07:55:56.956Z,64.20
2022-11-30T07:58:05.969Z,64.90
2022-11-30T08:00:13.969Z,65.20
2022-11-30T08:02:21.270Z,64.80
2022-11-30T08:04:28.281Z,64.40
2022-11-30T08:06:35.883Z,63.50
2022-11-30T08:08:44.280Z,63.20
2022-11-30T08:10:51.823Z,63.80
2022-11-30T08:12:59.011Z,63.10
2022-11-30T08:15:19.900Z,62.40
2022-11-30T08:17:27.654Z,62.30
2022-11-30T08:19:35.040Z,62.00
2022-11-30T08:21:41.965Z,62.00
2022-11-30T08:23:50.832Z,62.10
2022-11-30T08:25:57.867Z,62.00
2022-11-30T08:28:05.452Z,62.00
2022-11-30T08:30:14.893Z,61.80
2022-11-30T08:32:22.636Z,61.10
2022-11-30T08:34:29.663Z,60.70
2022-11-30T08:36:37.460Z,60.70
2022-11-30T08:38:45.972Z,61.20
2022-11-30T08:40:53.253Z,60.90
2022-11-30T08:43:02.074Z,60.60
2022-11-30T08:45:10.176Z,60.80
2022-11-30T08:47:18.977Z,60.60
2022-11-30T08:49:26.850Z,60.40
2022-11-30T08:51:53.787Z,60.60
2022-11-30T08:54:01.431Z,60.60
2022-11-30T08:56:11.545Z,60.70
2022-11-30T08:58:18.974Z,60.60
2022-11-30T09:00:26.103Z,60.60
2022-11-30T09:02:35.024Z,60.60
2022-11-30T09:04:42.107Z,60.80
2022-11-30T09:06:49.079Z,61.30
2022-11-30T09:08:58.212Z,61.20
2022-11-30T09:11:12.554Z,60.80
2022-11-30T09:13:19.838Z,60.30
2022-11-30T09:15:26.764Z,60.20
2022-11-30T09:17:36.049Z,60.50
2022-11-30T09:19:43.134Z,60.60
2022-11-30T09:21:52.241Z,60.30
2022-11-30T09:23:59.793Z,60.10
2022-11-30T09:26:09.385Z,60.20
2022-11-30T09:28:16.409Z,60.20
2022-11-30T09:30:23.845Z,60.50
2022-11-30T09:32:31.644Z,59.80
2022-11-30T09:34:40.614Z,60.20
2022-11-30T09:36:47.751Z,60.60
2022-11-30T09:38:55.344Z,60.40
2022-11-30T09:41:03.901Z,59.80
2022-11-30T09:43:21.376Z,59.50
2022-11-30T09:45:33.625Z,59.50
2022-11-30T09:48:06.362Z,59.50
2022-11-30T09:50:19.399Z,59.50
2022-11-30T09:52:31.901Z,59.40
2022-11-30T09:54:41.928Z,59.30
2022-11-30T09:56:49.472Z,59.50
2022-11-30T09:59:01.062Z,59.40
2022-11-30T10:01:09.671Z,59.40
2022-11-30T10:03:17.702Z,59.70
2022-11-30T10:05:29.463Z,59.90
2022-11-30T10:07:56.833Z,59.90
2022-11-30T10:12:45.693Z,60.00
2022-11-30T10:15:14.586Z,60.20
2022-11-30T10:17:31.237Z,59.80
2022-11-30T10:19:58.742Z,60.30
2022-11-30T10:22:20.522Z,60.40
2022-11-30T10:24:39.308Z,60.80
2022-11-30T10:26:56.178Z,60.80
2022-11-30T10:29:10.944Z,61.00
2022-11-30T10:31:19.442Z,61.30
2022-11-30T10:33:35.312Z,61.60
2022-11-30T10:35:48.564Z,61.90
2022-11-30T10:37:58.654Z,62.80
2022-11-30T10:40:09.224Z,64.30
2022-11-30T10:42:21.167Z,64.50
2022-11-30T10:44:32.037Z,64.40
2022-11-30T10:46:42.101Z,64.30
2022-11-30T10:48:55.322Z,64.60
2022-11-30T10:51:04.078Z,65.40
2022-11-30T10:53:15.304Z,65.80
2022-11-30T10:55:24.582Z,67.50
2022-11-30T10:57:34.780Z,68.60
2022-11-30T10:59:46.710Z,69.20
2022-11-30T11:01:55.045Z,70.30
2022-11-30T11:04:13.123Z,71.40
2022-11-30T11:06:25.596Z,72.20
2022-11-30T11:08:34.421Z,71.30
2022-11-30T11:10:50.951Z,71.40
2022-11-30T11:12:58.906Z,72.20
2022-11-30T11:15:17.198Z,72.40
2022-11-30T11:17:27.953Z,73.40
2022-11-30T11:19:43.990Z,72.50
2022-11-30T11:21:53.629Z,72.70
2022-11-30T11:24:03.075Z,73.10
2022-11-30T11:26:11.841Z,74.00
2022-11-30T11:28:21.376Z,74.00
2022-11-30T11:30:34.597Z,74.00
2022-11-30T11:32:42.395Z,74.20
2022-11-30T11:34:51.388Z,73.80
2022-11-30T11:37:10.537Z,73.70
2022-11-30T11:39:30.572Z,73.80
2022-11-30T11:41:40.821Z,74.50
2022-11-30T11:44:04.487Z,74.00
2022-11-30T11:46:16.507Z,75.00
2022-11-30T11:48:42.664Z,75.40
2022-11-30T11:51:07.074Z,76.80
2022-11-30T11:53:26.178Z,75.40
2022-11-30T11:55:34.870Z,74.90
2022-11-30T11:57:47.899Z,74.50
2022-11-30T12:00:00.359Z,74.90
2022-11-30T12:02:24.288Z,76.00
2022-11-30T12:04:43.957Z,77.00
2022-11-30T12:06:54.713Z,76.70
2022-11-30T12:09:05.987Z,77.20
2022-11-30T12:11:21.262Z,77.40
2022-11-30T12:13:32.228Z,77.70
2022-11-30T12:15:54.145Z,77.40
2022-11-30T12:18:17.110Z,77.20
2022-11-30T12:20:51.072Z,77.30
2022-11-30T12:23:22.825Z,78.00
2022-11-30T12:25:33.398Z,78.90
2022-11-30T12:27:53.839Z,79.10
2022-11-30T12:30:10.943Z,79.40
2022-11-30T12:32:31.795Z,79.40
2022-11-30T12:34:54.134Z,79.00
2022-11-30T12:37:07.563Z,78.70
2022-11-30T12:39:24.566Z,78.70
2022-11-30T12:41:39.691Z,79.50
2022-11-30T12:43:57.009Z,79.50
2022-11-30T12:46:12.921Z,79.30
2022-11-30T12:48:31.443Z,78.90
2022-11-30T12:50:51.529Z,78.60
2022-11-30T12:53:06.590Z,78.40
2022-11-30T12:55:25.964Z,78.40
2022-11-30T12:57:38.014Z,79.00
2022-11-30T12:59:55.267Z,78.60
2022-11-30T13:02:23.876Z,79.30
2022-11-30T13:04:34.225Z,80.10
2022-11-30T13:06:45.748Z,80.10
2022-11-30T13:09:01.584Z,80.20
2022-11-30T13:11:15.779Z,80.50
2022-11-30T13:13:26.803Z,80.40
2022-11-30T13:15:38.125Z,80.60
2022-11-30T13:17:45.720Z,81.20
2022-11-30T13:20:00.625Z,81.60
2022-11-30T13:22:15.746Z,82.00
2022-11-30T13:24:30.252Z,82.30
2022-11-30T13:26:45.471Z,81.70
2022-11-30T13:29:08.152Z,81.10
2022-11-30T13:31:23.709Z,81.00
2022-11-30T13:33:51.204Z,81.20
2022-11-30T13:35:58.390Z,82.10
2022-11-30T13:40:43.059Z,82.40
2022-11-30T13:42:51.912Z,83.00
2022-11-30T13:44:59.262Z,83.40
2022-11-30T13:47:09.934Z,83.60
2022-11-30T13:49:24.643Z,83.70
2022-11-30T13:51:43.496Z,83.80
2022-11-30T13:53:50.465Z,84.30
2022-11-30T13:56:04.508Z,84.50
2022-11-30T13:58:13.690Z,84.70
2022-11-30T14:00:49.263Z,85.00
2022-11-30T14:02:59.384Z,85.00
2022-11-30T14:05:39.089Z,84.60
2022-11-30T14:07:48.779Z,86.00
2022-11-30T14:10:03.312Z,85.50
2022-11-30T14:12:42.205Z,85.50
2022-11-30T14:14:50.711Z,86.40
2022-11-30T14:16:58.359Z,86.30
2022-11-30T14:19:09.938Z,86.40
2022-11-30T14:21:25.421Z,86.30
2022-11-30T14:23:40.241Z,86.40
2022-11-30T14:25:52.584Z,86.50
2022-11-30T14:30:23.963Z,86.40
2022-11-30T14:32:38.951Z,86.50
2022-11-30T14:34:51.208Z,86.80
2022-11-30T14:37:03.771Z,87.20
2022-11-30T14:39:31.121Z,87.20
2022-11-30T14:41:38.352Z,87.70
2022-11-30T14:44:00.283Z,87.80
2022-11-30T14:46:13.100Z,87.80
2022-11-30T14:48:23.346Z,88.00
2022-11-30T14:50:32.272Z,88.10
2022-11-30T14:52:55.630Z,88.30
2022-11-30T14:55:15.973Z,88.60
2022-11-30T14:57:31.088Z,88.70
2022-11-30T14:59:49.250Z,88.90
2022-11-30T15:02:00.595Z,89.10
2022-11-30T15:04:13.427Z,89.10
2022-11-30T15:06:23.622Z,89.00
2022-11-30T15:08:36.788Z,89.00
2022-11-30T15:10:44.470Z,88.90
2022-11-30T15:12:51.919Z,89.00
2022-11-30T15:15:21.431Z,89.00
2022-11-30T15:17:28.838Z,89.30
2022-11-30T15:19:36.971Z,89.30
2022-11-30T15:21:51.658Z,89.60
2022-11-30T15:24:00.442Z,90.20
2022-11-30T15:26:15.363Z,90.40
2022-11-30T15:28:26.172Z,90.60
2022-11-30T15:30:34.129Z,90.50
2022-11-30T15:32:41.357Z,90.50
2022-11-30T15:34:56.244Z,90.50
2022-11-30T15:37:06.630Z,90.30
2022-11-30T15:39:22.005Z,90.50
2022-11-30T15:41:30.004Z,90.60
2022-11-30T15:43:40.134Z,91.00
2022-11-30T15:45:56.655Z,91.60
2022-11-30T15:48:05.333Z,92.20
2022-11-30T15:50:38.718Z,92.30
2022-11-30T15:52:53.834Z,92.40
2022-11-30T15:55:04.449Z,92.40
2022-11-30T15:57:11.428Z,92.40
2022-11-30T15:59:27.518Z,92.30
2022-11-30T16:01:35.422Z,92.20
2022-11-30T16:04:07.029Z,92.20
2022-11-30T16:06:22.600Z,92.30
2022-11-30T16:08:31.777Z,92.50
2022-11-30T16:10:40.290Z,92.50
2022-11-30T16:12:47.982Z,92.70
2022-11-30T16:14:55.370Z,92.50
2022-11-30T16:17:07.292Z,92.40
2022-11-30T16:19:16.443Z,92.50
2022-11-30T16:21:24.145Z,92.50
2022-11-30T16:23:36.483Z,92.50
2022-11-30T16:25:44.078Z,92.60
2022-11-30T16:27:51.724Z,92.50
2022-11-30T16:29:59.520Z,92.60
2022-11-30T16:32:06.703Z,92.50
2022-11-30T16:34:15.590Z,92.30
2022-11-30T16:36:23.978Z,92.20
2022-11-30T16:38:35.666Z,92.10
2022-11-30T16:40:42.891Z,91.80
2022-11-30T16:42:51.203Z,92.20
2022-11-30T16:44:58.532Z,92.40
2022-11-30T16:47:05.357Z,92.50
2022-11-30T16:49:12.479Z,92.60
2022-11-30T16:51:22.433Z,92.60
2022-11-30T16:53:29.666Z,92.60
2022-11-30T16:55:39.990Z,92.80
2022-11-30T16:57:47.049Z,92.60
2022-11-30T16:59:53.771Z,92.30
2022-11-30T17:02:00.946Z,92.40
2022-11-30T17:04:14.487Z,92.40
2022-11-30T17:06:23.710Z,92.00
2022-11-30T17:08:30.483Z,91.80
2022-11-30T17:10:40.123Z,91.50
2022-11-30T17:12:46.952Z,91.10
2022-11-30T17:14:54.129Z,90.80
2022-11-30T17:17:03.873Z,90.20
2022-11-30T17:19:11.203Z,89.80
2022-11-30T17:21:21.003Z,89.60
2022-11-30T17:23:28.162Z,89.30
2022-11-30T17:25:35.258Z,88.70
2022-11-30T17:27:44.077Z,88.20
2022-11-30T17:29:50.828Z,87.80
2022-11-30T17:31:57.929Z,87.50
2022-11-30T17:34:04.753Z,87.30
2022-11-30T17:36:14.085Z,87.10
2022-11-30T17:38:21.048Z,86.70
2022-11-30T17:40:28.295Z,86.30
2022-11-30T17:42:35.220Z,86.10
2022-11-30T17:44:43.987Z,86.00
2022-11-30T17:46:50.606Z,86.10
2022-11-30T17:48:58.699Z,85.70
2022-11-30T17:51:05.800Z,85.30
2022-11-30T17:53:17.960Z,84.80
2022-11-30T17:55:25.181Z,84.80
2022-11-30T17:57:32.212Z,84.80
2022-11-30T17:59:39.013Z,84.40
2022-11-30T18:01:48.014Z,84.10
2022-11-30T18:03:55.791Z,83.90
2022-11-30T18:06:04.510Z,83.80
2022-11-30T18:08:11.623Z,83.40
2022-11-30T18:10:18.667Z,83.10
2022-11-30T18:12:25.593Z,82.90
2022-11-30T18:14:32.774Z,82.80
2022-11-30T18:16:40.395Z,82.60
2022-11-30T18:18:49.213Z,82.40
2022-11-30T18:20:56.470Z,82.20
2022-11-30T18:23:03.533Z,81.90
2022-11-30T18:25:11.218Z,81.50
2022-11-30T18:27:18.150Z,81.70
2022-11-30T18:29:24.863Z,81.60
2022-11-30T18:31:33.299Z,81.50
2022-11-30T18:33:40.737Z,81.20
2022-11-30T18:35:49.250Z,81.20
2022-11-30T18:37:56.317Z,81.00
2022-11-30T18:40:03.615Z,81.10
2022-11-30T18:42:10.320Z,81.20
2022-11-30T18:44:17.243Z,80.90
2022-11-30T18:46:24.184Z,80.90
2022-11-30T18:48:31.250Z,80.70
2022-11-30T18:50:38.327Z,80.70
2022-11-30T18:52:46.694Z,80.70
2022-11-30T18:54:53.721Z,80.60
2022-11-30T18:57:00.335Z,80.50
2022-11-30T18:59:08.796Z,80.70
2022-11-30T19:01:17.525Z,80.50
2022-11-30T19:03:24.454Z,80.50
2022-11-30T19:05:37.613Z,80.20
2022-11-30T19:07:46.407Z,80.10
2022-11-30T19:09:53.058Z,80.20
2022-11-30T19:12:01.148Z,80.10
2022-11-30T19:14:08.001Z,80.20
2022-11-30T19:16:16.422Z,80.30
2022-11-30T19:18:23.458Z,80.40
2022-11-30T19:20:30.485Z,80.20
2022-11-30T19:22:37.281Z,80.20
2022-11-30T19:24:46.101Z,80.10
2022-11-30T19:26:53.060Z,80.00
2022-11-30T19:29:01.167Z,80.20
2022-11-30T19:31:11.925Z,80.40
2022-11-30T19:33:18.872Z,79.90
2022-11-30T19:35:26.209Z,80.10
2022-11-30T19:37:32.979Z,80.10
2022-11-30T19:39:40.418Z,80.30
2022-11-30T19:41:49.031Z,80.40
2022-11-30T19:44:03.260Z,80.60
2022-11-30T19:46:12.120Z,80.50
2022-11-30T19:48:19.165Z,80.70
2022-11-30T19:50:26.311Z,80.70
2022-11-30T19:52:33.753Z,80.60
2022-11-30T19:54:40.621Z,80.60
2022-11-30T19:56:49.185Z,80.60
2022-11-30T19:58:58.751Z,80.70
2022-11-30T20:01:14.949Z,80.50
2022-11-30T20:03:21.945Z,80.40
2022-11-30T20:05:29.334Z,80.50
2022-11-30T20:07:36.025Z,80.70
2022-11-30T20:09:43.284Z,80.70
2022-11-30T20:11:51.626Z,80.70
2022-11-30T20:13:59.330Z,80.90
2022-11-30T20:16:11.046Z,81.10
2022-11-30T20:18:18.244Z,81.00
2022-11-30T20:20:24.927Z,81.10
2022-11-30T20:22:32.108Z,80.80
2022-11-30T20:24:39.134Z,80.90
2022-11-30T20:26:46.970Z,81.20
2022-11-30T20:28:56.175Z,81.20
2022-11-30T20:31:06.401Z,81.40
2022-11-30T20:33:13.040Z,81.60
2022-11-30T20:35:20.472Z,81.80
2022-11-30T20:37:27.243Z,82.20
2022-11-30T20:39:34.423Z,82.30
2022-11-30T20:41:41.203Z,82.90
2022-11-30T20:43:48.536Z,82.70
2022-11-30T20:45:57.141Z,83.10
2022-11-30T20:48:04.328Z,83.10
2022-11-30T20:50:11.974Z,83.00
2022-11-30T20:52:19.358Z,83.10
2022-11-30T20:54:26.232Z,82.90
2022-11-30T20:56:33.364Z,83.10
2022-11-30T20:58:40.185Z,83.30
2022-11-30T21:00:47.266Z,82.90
2022-11-30T21:02:55.937Z,82.90
2022-11-30T21:05:02.960Z,82.80
2022-11-30T21:07:10.037Z,82.90
2022-11-30T21:09:17.530Z,82.70
2022-11-30T21:11:25.075Z,83.10
2022-11-30T21:13:32.506Z,83.30
2022-11-30T21:15:39.477Z,83.10
2022-11-30T21:17:46.919Z,83.10
2022-11-30T21:19:55.330Z,82.90
2022-11-30T21:22:02.358Z,82.60
2022-11-30T21:24:12.202Z,82.50
2022-11-30T21:26:21.072Z,82.60
2022-11-30T21:28:27.845Z,82.70
2022-11-30T21:30:35.028Z,82.70
2022-11-30T21:32:41.900Z,83.00
2022-11-30T21:34:49.507Z,83.60
2022-11-30T21:36:58.311Z,84.40
2022-11-30T21:39:08.259Z,84.70
2022-11-30T21:41:16.669Z,85.20
2022-11-30T21:43:23.596Z,85.60
2022-11-30T21:45:30.469Z,85.80
2022-11-30T21:47:37.651Z,86.00
2022-11-30T21:49:44.423Z,86.40
2022-11-30T21:51:51.503Z,86.90
2022-11-30T21:54:01.706Z,87.90
2022-11-30T21:56:13.545Z,88.00
2022-11-30T21:58:20.471Z,87.80
2022-11-30T22:00:27.818Z,87.80
2022-11-30T22:02:35.553Z,88.00
2022-11-30T22:04:43.142Z,87.80
2022-11-30T22:06:50.016Z,87.50
2022-11-30T22:08:59.094Z,87.70
2022-11-30T22:11:06.941Z,87.80
2022-11-30T22:13:14.582Z,87.80
2022-11-30T22:15:21.612Z,87.80
2022-11-30T22:17:28.690Z,88.20
2022-11-30T22:19:35.565Z,88.50
2022-11-30T22:21:48.246Z,88.80
2022-11-30T22:23:59.860Z,88.60
2022-11-30T22:26:15.131Z,88.40
2022-11-30T22:28:21.904Z,88.40
2022-11-30T22:30:29.293Z,88.80
2022-11-30T22:32:39.530Z,89.50
2022-11-30T22:34:49.166Z,89.70
2022-11-30T22:36:55.731Z,89.80
2022-11-30T22:39:07.131Z,89.90
2022-11-30T22:41:15.438Z,90.00
2022-11-30T22:43:22.467Z,90.00
2022-11-30T22:45:29.340Z,89.90
2022-11-30T22:47:36.421Z,90.00
2022-11-30T22:49:43.296Z,90.60
2022-11-30T22:51:50.620Z,90.80
2022-11-30T22:53:58.066Z,90.80
2022-11-30T22:56:09.061Z,91.10
2022-11-30T22:58:15.747Z,91.50
2022-11-30T23:00:23.247Z,91.60
2022-11-30T23:02:30.167Z,91.60
2022-11-30T23:04:38.020Z,91.60
2022-11-30T23:06:46.175Z,91.80
2022-11-30T23:08:54.430Z,91.90
2022-11-30T23:11:01.717Z,92.20
2022-11-30T23:13:10.534Z,92.40
2022-11-30T23:15:17.516Z,92.50
2022-11-30T23:17:24.744Z,92.60
2022-11-30T23:19:31.671Z,92.60
2022-11-30T23:21:41.965Z,92.60
2022-11-30T23:23:49.619Z,92.60
2022-11-30T23:25:56.696Z,92.50
2022-11-30T23:28:03.521Z,92.50
2022-11-30T23:30:13.314Z,92.80
2022-11-30T23:32:20.231Z,93.10
2022-11-30T23:34:27.215Z,93.20
2022-11-30T23:36:34.040Z,93.40
2022-11-30T23:38:41.527Z,93.60
2022-11-30T23:40:48.862Z,93.50
2022-11-30T23:42:56.249Z,93.60
2022-11-30T23:45:02.969Z,93.80
2022-11-30T23:47:16.793Z,93.70
2022-11-30T23:49:25.064Z,93.70
2022-11-30T23:51:32.451Z,93.40
2022-11-30T23:53:39.226Z,93.20
2022-11-30T23:55:46.455Z,92.70
2022-11-30T23:57:54.099Z,92.70
